createdAt,value
2018-11-28T00:01:02.595Z,14.20
2018-11-28T00:05:57.039Z,15.80
2018-11-28T00:10:51.439Z,14.37
2018-11-28T00:15:45.839Z,15.47
2018-11-28T00:20:40.239Z,16.23
2018-11-28T00:25:34.642Z,18.20
2018-11-28T00:30:29.047Z,17.47
2018-11-28T00:35:24.759Z,15.97
2018-11-28T00:40:21.023Z,15.97
2018-11-28T00:45:19.417Z,13.50
2018-11-28T00:50:16.580Z,13.17
2018-11-28T00:55:16.298Z,14.00
2018-11-28T01:00:24.600Z,14.67
2018-11-28T01:05:19.195Z,16.47
2018-11-28T01:10:16.110Z,16.20
2018-11-28T01:15:12.391Z,13.77
2018-11-28T01:20:12.595Z,15.33
2018-11-28T01:25:10.221Z,12.80
2018-11-28T01:30:07.979Z,14.40
2018-11-28T01:35:02.438Z,14.40
2018-11-28T01:39:56.894Z,15.80
2018-11-28T01:44:51.407Z,15.53
2018-11-28T01:49:45.834Z,13.37
2018-11-28T01:54:40.266Z,13.50
2018-11-28T01:59:34.671Z,14.17
2018-11-28T02:04:29.163Z,14.33
2018-11-28T02:09:23.583Z,14.17
2018-11-28T02:14:17.979Z,15.17
2018-11-28T02:19:12.454Z,15.33
2018-11-28T02:24:07.270Z,16.20
2018-11-28T02:29:01.722Z,14.27
2018-11-28T02:33:56.127Z,14.40
2018-11-28T02:38:50.541Z,15.70
2018-11-28T02:43:45.019Z,12.97
2018-11-28T02:48:39.477Z,15.23
2018-11-28T02:53:33.943Z,14.03
2018-11-28T02:58:28.367Z,13.57
2018-11-28T03:03:22.809Z,12.50
2018-11-28T03:08:17.219Z,12.27
2018-11-28T03:13:11.623Z,13.10
2018-11-28T03:18:06.853Z,13.77
2018-11-28T03:23:01.250Z,12.37
2018-11-28T03:27:55.648Z,13.27
2018-11-28T03:32:50.171Z,13.20
2018-11-28T03:37:44.863Z,12.43
2018-11-28T03:42:39.434Z,14.20
2018-11-28T03:47:33.881Z,12.57
2018-11-28T03:52:28.485Z,11.53
2018-11-28T03:57:22.910Z,14.67
2018-11-28T04:02:17.375Z,14.60
2018-11-28T04:07:11.852Z,11.53
2018-11-28T04:12:06.981Z,12.20
2018-11-28T04:17:01.441Z,12.23
2018-11-28T04:21:55.887Z,11.83
2018-11-28T04:26:50.513Z,12.57
2018-11-28T04:31:45.006Z,13.60
2018-11-28T04:36:39.436Z,12.03
2018-11-28T04:41:33.864Z,13.40
2018-11-28T04:46:28.276Z,14.77
2018-11-28T04:51:22.724Z,12.30
2018-11-28T04:56:17.140Z,12.40
2018-11-28T05:01:11.558Z,12.43
2018-11-28T05:06:06.053Z,11.57
2018-11-28T05:11:00.540Z,11.33
2018-11-28T05:15:55.019Z,12.80
2018-11-28T05:20:49.438Z,13.40
2018-11-28T05:25:43.847Z,12.83
2018-11-28T05:30:38.265Z,12.63
2018-11-28T05:35:36.328Z,14.20
2018-11-28T05:40:30.840Z,15.17
2018-11-28T05:45:25.307Z,14.50
2018-11-28T05:50:22.247Z,15.80
2018-11-28T05:55:18.167Z,15.63
2018-11-28T06:00:37.241Z,13.77
2018-11-28T06:05:31.764Z,13.23
2018-11-28T06:10:26.222Z,16.00
2018-11-28T06:15:20.755Z,16.03
2018-11-28T06:20:16.306Z,17.43
2018-11-28T06:25:16.133Z,17.27
2018-11-28T06:30:13.510Z,17.27
2018-11-28T06:35:09.586Z,16.57
2018-11-28T06:40:04.095Z,18.70
2018-11-28T06:44:58.568Z,17.40
2018-11-28T06:49:53.016Z,19.13
2018-11-28T06:54:47.505Z,20.53
2018-11-28T06:59:41.983Z,18.90
2018-11-28T07:04:36.633Z,18.90
2018-11-28T07:09:31.115Z,21.57
2018-11-28T07:14:25.649Z,23.27
2018-11-28T07:19:20.260Z,20.57
2018-11-28T07:24:16.094Z,20.23
2018-11-28T07:29:10.799Z,25.27
2018-11-28T07:34:05.787Z,19.53
2018-11-28T07:39:00.302Z,15.70
2018-11-28T07:43:55.090Z,14.13
2018-11-28T07:48:50.055Z,12.90
2018-11-28T07:53:44.578Z,13.37
2018-11-28T07:58:42.216Z,12.70
2018-11-28T08:03:36.835Z,12.30
2018-11-28T08:08:35.536Z,12.00
2018-11-28T08:13:30.120Z,12.53
2018-11-28T08:18:24.599Z,10.60
2018-11-28T08:23:19.060Z,10.67
2018-11-28T08:28:14.784Z,11.10
2018-11-28T08:33:09.767Z,10.90
2018-11-28T08:38:04.296Z,12.20
2018-11-28T08:42:59.575Z,13.70
2018-11-28T08:47:58.982Z,11.83
2018-11-28T08:52:54.688Z,12.57
2018-11-28T08:57:50.163Z,11.73
2018-11-28T09:02:45.794Z,11.17
2018-11-28T09:07:40.643Z,10.00
2018-11-28T09:13:04.498Z,11.40
2018-11-28T09:18:00.053Z,10.67
2018-11-28T09:22:55.218Z,10.93
2018-11-28T09:27:58.481Z,11.23
2018-11-28T09:32:59.552Z,10.13
2018-11-28T09:37:54.260Z,10.33
2018-11-28T09:42:58.937Z,10.27
2018-11-28T09:47:54.969Z,9.17
2018-11-28T09:52:49.641Z,10.20
2018-11-28T09:57:44.781Z,10.47
2018-11-28T10:02:39.445Z,9.73
2018-11-28T10:07:34.360Z,10.20
2018-11-28T10:12:29.835Z,10.27
2018-11-28T10:17:24.589Z,9.90
2018-11-28T10:22:19.171Z,9.40
2018-11-28T10:27:27.647Z,9.27
2018-11-28T10:32:22.530Z,9.63
2018-11-28T10:37:17.099Z,9.17
2018-11-28T10:42:11.772Z,9.77
2018-11-28T10:47:06.478Z,9.53
2018-11-28T10:52:01.451Z,8.37
2018-11-28T10:56:56.645Z,10.20
2018-11-28T11:01:52.500Z,10.10
2018-11-28T11:06:52.278Z,9.60
2018-11-28T11:11:52.330Z,8.90
2018-11-28T11:16:46.790Z,9.87
2018-11-28T11:21:41.836Z,8.90
2018-11-28T11:26:36.678Z,9.63
2018-11-28T11:31:31.658Z,9.23
2018-11-28T11:36:26.549Z,10.03
2018-11-28T11:41:21.212Z,11.80
2018-11-28T11:46:18.182Z,11.77
2018-11-28T11:51:12.958Z,9.70
2018-11-28T11:56:09.186Z,10.40
2018-11-28T12:01:04.156Z,15.80
2018-11-28T12:05:59.995Z,10.63
2018-11-28T12:10:54.696Z,9.83
2018-11-28T12:15:49.489Z,11.37
2018-11-28T12:20:56.823Z,11.90
2018-11-28T12:25:51.487Z,11.30
2018-11-28T12:30:46.168Z,10.27
2018-11-28T12:35:42.791Z,12.87
2018-11-28T12:40:39.187Z,10.73
2018-11-28T12:45:33.907Z,10.20
2018-11-28T12:50:29.779Z,11.30
2018-11-28T12:55:25.199Z,10.97
2018-11-28T13:00:23.054Z,9.70
2018-11-28T13:05:19.111Z,11.30
2018-11-28T13:10:20.364Z,15.30
2018-11-28T13:15:18.995Z,10.73
2018-11-28T13:20:17.142Z,9.20
2018-11-28T13:25:18.034Z,10.03
2018-11-28T13:30:17.877Z,9.93
2018-11-28T13:35:15.023Z,13.20
2018-11-28T13:40:13.188Z,13.60
2018-11-28T13:45:12.250Z,9.73
2018-11-28T13:50:09.404Z,13.70
2018-11-28T13:55:37.406Z,11.10
2018-11-28T13:59:58.930Z,10.83
2018-11-28T14:05:00.836Z,11.27
2018-11-28T14:09:55.815Z,15.73
2018-11-28T14:14:50.307Z,11.10
2018-11-28T14:19:45.107Z,10.10
2018-11-28T14:24:49.817Z,11.77
2018-11-28T14:29:51.277Z,12.77
2018-11-28T14:34:46.123Z,12.63
2018-11-28T14:39:40.729Z,13.00
2018-11-28T14:44:35.694Z,14.17
2018-11-28T14:49:31.691Z,15.03
2018-11-28T14:54:26.225Z,15.73
2018-11-28T14:59:20.933Z,15.43
2018-11-28T15:04:15.839Z,13.90
2018-11-28T15:09:16.582Z,13.10
2018-11-28T15:14:11.430Z,18.27
2018-11-28T15:19:06.393Z,12.43
2018-11-28T15:24:01.915Z,13.33
2018-11-28T15:28:56.617Z,14.03
2018-11-28T15:33:51.375Z,15.87
2018-11-28T15:38:45.950Z,16.93
2018-11-28T15:43:40.592Z,13.23
2018-11-28T15:48:36.479Z,14.53
2018-11-28T15:53:31.308Z,14.83
2018-11-28T15:58:26.664Z,15.87
2018-11-28T16:03:21.403Z,15.90
2018-11-28T16:08:16.080Z,23.17
2018-11-28T16:13:11.808Z,25.53
2018-11-28T16:18:06.688Z,24.43
2018-11-28T16:23:04.058Z,19.53
2018-11-28T16:27:56.784Z,17.60
2018-11-28T16:32:51.371Z,19.57
2018-11-28T16:37:46.314Z,21.03
2018-11-28T16:42:40.839Z,19.77
2018-11-28T16:47:35.443Z,16.87
2018-11-28T16:52:29.992Z,15.43
2018-11-28T16:57:27.335Z,17.50
2018-11-28T17:02:21.956Z,16.80
2018-11-28T17:07:16.533Z,14.00
2018-11-28T17:12:13.890Z,16.57
2018-11-28T17:17:08.462Z,16.10
2018-11-28T17:22:05.701Z,15.57
2018-11-28T17:27:00.314Z,16.03
2018-11-28T17:31:54.836Z,19.93
2018-11-28T17:36:49.360Z,21.13
2018-11-28T17:41:43.828Z,18.97
2018-11-28T17:46:38.355Z,18.00
2018-11-28T17:51:33.575Z,22.13
2018-11-28T17:56:28.139Z,32.70
2018-11-28T18:01:22.815Z,25.00
2018-11-28T18:06:17.356Z,32.33
2018-11-28T18:11:13.652Z,31.40
2018-11-28T18:16:11.916Z,22.83
2018-11-28T18:21:06.107Z,28.47
2018-11-28T18:26:01.455Z,29.73
2018-11-28T18:30:56.696Z,26.47
2018-11-28T18:35:51.281Z,28.13
2018-11-28T18:40:45.781Z,32.03
2018-11-28T18:45:46.850Z,26.90
2018-11-28T18:50:41.348Z,25.27
2018-11-28T18:55:35.831Z,26.97
2018-11-28T19:00:30.444Z,25.53
2018-11-28T19:05:25.029Z,27.00
2018-11-28T19:10:26.200Z,23.47
2018-11-28T19:15:22.663Z,23.07
2018-11-28T19:20:19.460Z,24.80
2018-11-28T19:25:15.546Z,25.03
2018-11-28T19:30:19.384Z,22.00
2018-11-28T19:35:14.065Z,20.07
2018-11-28T19:40:13.575Z,26.63
2018-11-28T19:45:09.192Z,22.57
2018-11-28T19:50:04.500Z,24.30
2018-11-28T19:54:59.191Z,21.53
2018-11-28T19:59:53.972Z,25.00
2018-11-28T20:04:48.852Z,24.97
2018-11-28T20:09:43.415Z,26.70
2018-11-28T20:14:38.028Z,24.87
2018-11-28T20:19:32.622Z,23.77
2018-11-28T20:24:27.225Z,24.27
2018-11-28T20:29:21.744Z,27.07
2018-11-28T20:34:16.332Z,22.50
2018-11-28T20:39:11.063Z,22.90
2018-11-28T20:44:05.812Z,23.37
2018-11-28T20:49:00.265Z,21.87
2018-11-28T20:53:54.883Z,25.23
2018-11-28T20:58:49.460Z,21.93
2018-11-28T21:03:44.014Z,21.10
2018-11-28T21:08:38.582Z,21.77
2018-11-28T21:13:33.118Z,22.13
2018-11-28T21:18:27.827Z,20.27
2018-11-28T21:23:22.383Z,20.77
2018-11-28T21:28:16.974Z,20.07
2018-11-28T21:33:13.388Z,22.90
2018-11-28T21:38:09.194Z,20.87
2018-11-28T21:43:03.761Z,17.60
2018-11-28T21:47:58.272Z,19.37
2018-11-28T21:52:52.839Z,20.17
2018-11-28T21:57:47.589Z,18.63
2018-11-28T22:02:42.309Z,20.83
2018-11-28T22:07:36.958Z,19.20
2018-11-28T22:12:32.032Z,15.37
2018-11-28T22:17:26.587Z,17.57
2018-11-28T22:22:21.147Z,18.80
2018-11-28T22:27:15.627Z,16.47
2018-11-28T22:32:10.109Z,17.33
2018-11-28T22:37:04.675Z,18.93
2018-11-28T22:41:59.174Z,15.47
2018-11-28T22:46:53.698Z,19.37
2018-11-28T22:51:48.163Z,16.47
2018-11-28T22:56:42.645Z,19.07
2018-11-28T23:04:04.189Z,16.37
2018-11-28T23:08:58.758Z,17.53
2018-11-28T23:13:53.260Z,16.43
2018-11-28T23:18:47.827Z,19.63
2018-11-28T23:23:42.350Z,16.50
2018-11-28T23:28:36.985Z,19.50
2018-11-28T23:33:31.459Z,16.90
2018-11-28T23:38:25.930Z,19.67
2018-11-28T23:43:20.447Z,17.77
2018-11-28T23:48:14.956Z,21.63
2018-11-28T23:53:09.415Z,19.47
2018-11-28T23:58:03.898Z,18.53
